createdAt,value
2023-05-10T00:00:49.623Z,73.71
2023-05-10T00:01:53.889Z,73.68
2023-05-10T00:02:58.183Z,73.69
2023-05-10T00:04:02.481Z,73.67
2023-05-10T00:05:06.724Z,73.68
2023-05-10T00:06:10.997Z,73.58
2023-05-10T00:07:15.230Z,73.71
2023-05-10T00:08:19.526Z,73.78
2023-05-10T00:09:23.871Z,73.93
2023-05-10T00:10:28.118Z,73.98
2023-05-10T00:11:32.468Z,74.03
2023-05-10T00:12:48.754Z,74.06
2023-05-10T00:13:51.264Z,74.22
2023-05-10T00:14:55.467Z,74.30
2023-05-10T00:15:59.849Z,74.34
2023-05-10T00:17:04.107Z,74.57
2023-05-10T00:18:08.498Z,74.64
2023-05-10T00:19:12.645Z,74.71
2023-05-10T00:20:17.231Z,74.81
2023-05-10T00:21:21.160Z,74.97
2023-05-10T00:22:25.478Z,75.00
2023-05-10T00:23:29.852Z,74.99
2023-05-10T00:24:34.132Z,75.07
2023-05-10T00:25:38.361Z,75.25
2023-05-10T00:26:42.703Z,75.32
2023-05-10T00:27:46.966Z,75.42
2023-05-10T00:28:51.253Z,75.61
2023-05-10T00:29:55.517Z,75.70
2023-05-10T00:30:59.790Z,75.83
2023-05-10T00:32:04.275Z,75.79
2023-05-10T00:33:22.470Z,75.75
2023-05-10T00:34:25.732Z,75.57
2023-05-10T00:35:29.967Z,75.54
2023-05-10T00:36:34.156Z,75.58
2023-05-10T00:37:38.487Z,75.71
2023-05-10T00:38:42.786Z,75.63
2023-05-10T00:39:47.041Z,75.69
2023-05-10T00:40:51.290Z,75.78
2023-05-10T00:41:55.543Z,75.76
2023-05-10T00:42:59.955Z,75.75
2023-05-10T00:44:04.132Z,75.72
2023-05-10T00:45:08.385Z,75.63
2023-05-10T00:46:12.733Z,75.77
2023-05-10T00:47:16.953Z,75.83
2023-05-10T00:48:21.288Z,75.93
2023-05-10T00:49:25.512Z,75.99
2023-05-10T00:50:29.729Z,76.07
2023-05-10T00:51:34.005Z,76.10
2023-05-10T00:52:38.257Z,76.18
2023-05-10T00:53:42.532Z,76.20
2023-05-10T00:54:46.825Z,76.32
2023-05-10T00:55:51.101Z,76.45
2023-05-10T00:56:55.400Z,76.55
2023-05-10T00:57:59.653Z,76.67
2023-05-10T00:59:03.956Z,76.66
2023-05-10T01:00:08.391Z,76.75
2023-05-10T01:01:12.563Z,76.92
2023-05-10T01:02:16.852Z,76.97
2023-05-10T01:03:21.283Z,77.00
2023-05-10T01:04:25.547Z,77.06
2023-05-10T01:05:29.710Z,77.21
2023-05-10T01:06:34.062Z,77.29
2023-05-10T01:07:38.303Z,77.35
2023-05-10T01:08:42.554Z,77.43
2023-05-10T01:09:46.856Z,77.45
2023-05-10T01:10:51.121Z,77.45
2023-05-10T01:11:55.438Z,77.50
2023-05-10T01:12:59.735Z,77.48
2023-05-10T01:14:04.044Z,77.61
2023-05-10T01:15:08.218Z,77.62
2023-05-10T01:16:12.730Z,77.84
2023-05-10T01:17:16.858Z,77.94
2023-05-10T01:18:21.136Z,78.01
2023-05-10T01:19:25.457Z,78.04
2023-05-10T01:20:43.651Z,78.16
2023-05-10T01:21:47.084Z,78.26
2023-05-10T01:22:51.247Z,78.27
2023-05-10T01:23:55.500Z,78.28
2023-05-10T01:24:59.758Z,78.39
2023-05-10T01:26:04.108Z,78.47
2023-05-10T01:27:08.476Z,78.47
2023-05-10T01:28:12.644Z,78.58
2023-05-10T01:29:16.961Z,78.59
2023-05-10T01:31:25.653Z,78.62
2023-05-10T01:32:29.863Z,78.69
2023-05-10T01:33:34.079Z,78.80
2023-05-10T01:34:38.391Z,78.83
2023-05-10T01:35:42.639Z,78.81
2023-05-10T01:36:46.956Z,78.81
2023-05-10T01:37:51.136Z,78.76
2023-05-10T01:38:55.478Z,78.76
2023-05-10T01:39:59.794Z,78.81
2023-05-10T01:41:04.054Z,78.97
2023-05-10T01:42:08.312Z,78.89
2023-05-10T01:43:12.546Z,78.80
2023-05-10T01:44:16.818Z,78.85
2023-05-10T01:45:21.119Z,78.88
2023-05-10T01:46:25.449Z,78.81
2023-05-10T01:47:29.740Z,78.83
2023-05-10T01:48:33.946Z,78.84
2023-05-10T01:49:38.287Z,78.79
2023-05-10T01:50:42.622Z,78.84
2023-05-10T01:51:46.799Z,78.90
2023-05-10T01:52:51.050Z,79.00
2023-05-10T01:53:55.186Z,79.02
2023-05-10T01:54:59.604Z,79.04
2023-05-10T01:56:03.908Z,79.11
2023-05-10T01:57:08.183Z,79.18
2023-05-10T01:58:12.544Z,79.20
2023-05-10T01:59:16.809Z,79.49
2023-05-10T02:00:21.133Z,79.50
2023-05-10T02:01:25.492Z,79.58
2023-05-10T02:02:29.774Z,79.69
2023-05-10T02:03:34.038Z,79.81
2023-05-10T02:04:38.211Z,79.89
2023-05-10T02:05:42.557Z,79.95
2023-05-10T02:06:46.788Z,79.96
2023-05-10T02:07:51.067Z,80.00
2023-05-10T02:08:55.341Z,80.11
2023-05-10T02:09:59.642Z,80.19
2023-05-10T02:11:03.879Z,80.20
2023-05-10T02:12:08.250Z,80.18
2023-05-10T02:13:12.604Z,80.32
2023-05-10T02:14:16.776Z,80.30
2023-05-10T02:15:21.140Z,80.32
2023-05-10T02:16:25.468Z,80.31
2023-05-10T02:17:29.718Z,80.33
2023-05-10T02:18:34.091Z,80.42
2023-05-10T02:19:38.257Z,80.44
2023-05-10T02:20:42.530Z,80.44
2023-05-10T02:21:46.864Z,80.48
2023-05-10T02:22:51.165Z,80.49
2023-05-10T02:23:56.417Z,80.44
2023-05-10T02:25:00.265Z,80.36
2023-05-10T02:26:04.565Z,80.29
2023-05-10T02:27:08.810Z,80.32
2023-05-10T02:28:13.079Z,80.38
2023-05-10T02:29:17.289Z,80.25
2023-05-10T02:30:21.588Z,80.20
2023-05-10T02:31:25.920Z,80.35
2023-05-10T02:32:30.173Z,80.35
2023-05-10T02:33:34.511Z,80.31
2023-05-10T02:34:38.664Z,80.30
2023-05-10T02:35:43.009Z,80.28
2023-05-10T02:36:47.327Z,80.27
2023-05-10T02:37:51.509Z,80.31
2023-05-10T02:38:55.747Z,80.32
2023-05-10T02:40:00.080Z,80.33
2023-05-10T02:41:04.231Z,80.37
2023-05-10T02:42:08.476Z,80.42
2023-05-10T02:43:12.739Z,80.52
2023-05-10T02:44:17.030Z,80.59
2023-05-10T02:45:21.369Z,80.83
2023-05-10T02:46:25.615Z,80.84
2023-05-10T02:47:29.923Z,80.89
2023-05-10T02:48:34.111Z,81.05
2023-05-10T02:49:38.296Z,81.14
2023-05-10T02:50:42.578Z,81.18
2023-05-10T02:51:46.835Z,81.24
2023-05-10T02:52:51.174Z,81.30
2023-05-10T02:53:55.391Z,81.34
2023-05-10T02:54:59.691Z,81.43
2023-05-10T02:56:03.898Z,81.52
2023-05-10T02:57:08.311Z,81.53
2023-05-10T02:58:12.494Z,81.57
2023-05-10T02:59:16.752Z,81.66
2023-05-10T03:00:21.013Z,81.65
2023-05-10T03:01:25.189Z,81.72
2023-05-10T03:02:29.457Z,81.68
2023-05-10T03:03:33.696Z,81.70
2023-05-10T03:04:38.032Z,81.81
2023-05-10T03:05:42.277Z,81.80
2023-05-10T03:06:46.525Z,81.77
2023-05-10T03:07:50.779Z,81.75
2023-05-10T03:08:55.020Z,81.75
2023-05-10T03:09:59.201Z,81.80
2023-05-10T03:11:03.612Z,81.96
2023-05-10T03:12:07.790Z,82.12
2023-05-10T03:13:12.111Z,82.07
2023-05-10T03:14:16.322Z,82.13
2023-05-10T03:15:20.675Z,82.07
2023-05-10T03:16:24.905Z,82.02
2023-05-10T03:17:29.147Z,82.07
2023-05-10T03:18:33.372Z,82.14
2023-05-10T03:19:37.623Z,82.20
2023-05-10T03:20:41.898Z,82.28
2023-05-10T03:21:46.172Z,82.40
2023-05-10T03:22:50.254Z,82.44
2023-05-10T03:23:54.602Z,82.46
2023-05-10T03:24:58.872Z,82.52
2023-05-10T03:26:03.148Z,82.56
2023-05-10T03:27:07.377Z,82.66
2023-05-10T03:28:11.819Z,82.69
2023-05-10T03:29:15.981Z,82.73
2023-05-10T03:30:20.221Z,82.78
2023-05-10T03:31:24.564Z,82.81
2023-05-10T03:32:28.886Z,82.85
2023-05-10T03:33:33.078Z,82.85
2023-05-10T03:34:37.505Z,82.85
2023-05-10T03:35:41.849Z,82.86
2023-05-10T03:36:46.149Z,82.83
2023-05-10T03:37:50.401Z,82.78
2023-05-10T03:38:54.665Z,82.77
2023-05-10T03:39:58.776Z,82.72
2023-05-10T03:41:03.082Z,82.68
2023-05-10T03:42:07.342Z,82.67
2023-05-10T03:43:11.520Z,82.66
2023-05-10T03:44:15.909Z,82.67
2023-05-10T03:45:20.072Z,82.69
2023-05-10T03:46:24.450Z,82.71
2023-05-10T03:47:34.733Z,82.72
2023-05-10T03:48:37.549Z,82.72
2023-05-10T03:49:41.717Z,82.76
2023-05-10T03:50:45.963Z,82.79
2023-05-10T03:51:50.208Z,82.80
2023-05-10T03:52:54.938Z,82.80
2023-05-10T03:53:58.753Z,82.81
2023-05-10T03:55:03.024Z,82.86
2023-05-10T03:56:07.271Z,82.91
2023-05-10T03:57:11.645Z,82.92
2023-05-10T03:58:15.854Z,82.97
2023-05-10T03:59:20.217Z,83.00
2023-05-10T04:00:24.504Z,82.99
2023-05-10T04:01:28.656Z,83.02
2023-05-10T04:02:33.168Z,83.01
2023-05-10T04:03:37.306Z,83.00
2023-05-10T04:04:41.519Z,83.02
2023-05-10T04:05:45.733Z,83.07
2023-05-10T04:06:50.157Z,83.12
2023-05-10T04:07:54.342Z,83.11
2023-05-10T04:08:58.587Z,83.15
2023-05-10T04:10:02.919Z,83.14
2023-05-10T04:11:07.115Z,83.19
2023-05-10T04:12:11.447Z,83.18
2023-05-10T04:13:15.691Z,83.20
2023-05-10T04:14:19.798Z,83.21
2023-05-10T04:15:24.034Z,83.15
2023-05-10T04:16:28.379Z,83.14
2023-05-10T04:17:35.704Z,83.14
2023-05-10T04:18:38.961Z,83.12
2023-05-10T04:19:43.256Z,83.10
2023-05-10T04:20:47.527Z,83.05
2023-05-10T04:21:51.780Z,83.02
2023-05-10T04:22:56.023Z,82.97
2023-05-10T04:24:00.308Z,82.95
2023-05-10T04:25:04.633Z,82.94
2023-05-10T04:26:08.880Z,82.86
2023-05-10T04:27:13.225Z,82.82
2023-05-10T04:28:17.477Z,82.77
2023-05-10T04:29:21.828Z,82.67
2023-05-10T04:30:26.047Z,82.61
2023-05-10T04:31:30.311Z,82.59
2023-05-10T04:32:34.536Z,82.52
2023-05-10T04:33:38.801Z,82.44
2023-05-10T04:34:43.012Z,82.28
2023-05-10T04:35:47.300Z,82.25
2023-05-10T04:36:51.570Z,82.29
2023-05-10T04:37:55.804Z,82.21
2023-05-10T04:39:00.103Z,81.97
2023-05-10T04:40:04.416Z,82.14
2023-05-10T04:41:08.635Z,82.00
2023-05-10T04:42:12.889Z,81.83
2023-05-10T04:43:17.168Z,81.73
2023-05-10T04:44:21.518Z,81.48
2023-05-10T04:45:25.782Z,81.39
2023-05-10T04:46:30.168Z,81.34
2023-05-10T04:47:34.455Z,81.14
2023-05-10T04:48:38.674Z,81.09
2023-05-10T04:49:42.943Z,81.17
2023-05-10T04:50:47.249Z,81.06
2023-05-10T04:51:51.505Z,80.89
2023-05-10T04:52:55.780Z,80.76
2023-05-10T04:54:05.865Z,80.67
2023-05-10T04:55:04.302Z,80.51
2023-05-10T04:56:08.662Z,80.35
2023-05-10T04:57:12.947Z,79.99
2023-05-10T04:58:17.266Z,79.75
2023-05-10T04:59:21.569Z,79.66
2023-05-10T05:00:25.825Z,79.61
2023-05-10T05:01:30.255Z,79.36
2023-05-10T05:02:34.565Z,78.97
2023-05-10T05:03:38.842Z,78.72
2023-05-10T05:04:43.109Z,78.60
2023-05-10T05:05:47.343Z,78.58
2023-05-10T05:06:53.770Z,78.49
2023-05-10T05:07:55.968Z,78.49
2023-05-10T05:09:00.253Z,78.38
2023-05-10T05:10:04.600Z,78.34
2023-05-10T05:11:08.831Z,78.21
2023-05-10T05:12:13.169Z,77.74
2023-05-10T05:13:17.436Z,77.28
2023-05-10T05:14:21.690Z,76.95
2023-05-10T05:15:25.988Z,76.83
2023-05-10T05:16:30.328Z,76.56
2023-05-10T05:17:34.643Z,76.20
2023-05-10T05:18:38.882Z,76.17
2023-05-10T05:19:43.226Z,76.14
2023-05-10T05:20:47.462Z,76.11
2023-05-10T05:21:51.753Z,76.06
2023-05-10T05:22:56.010Z,75.86
2023-05-10T05:24:00.321Z,75.70
2023-05-10T05:25:04.654Z,75.49
2023-05-10T05:26:09.011Z,75.34
2023-05-10T05:27:13.261Z,75.36
2023-05-10T05:28:17.575Z,75.29
2023-05-10T05:29:21.849Z,75.13
2023-05-10T05:30:26.120Z,74.94
2023-05-10T05:31:30.425Z,74.74
2023-05-10T05:32:34.745Z,74.70
2023-05-10T05:33:38.987Z,74.95
2023-05-10T05:34:43.386Z,74.76
2023-05-10T05:35:47.611Z,74.71
2023-05-10T05:36:51.923Z,74.46
2023-05-10T05:37:56.220Z,74.31
2023-05-10T05:39:00.577Z,74.37
2023-05-10T05:40:04.809Z,74.12
2023-05-10T05:41:09.238Z,73.93
2023-05-10T05:42:13.488Z,73.81
2023-05-10T05:43:17.769Z,73.58
2023-05-10T05:44:22.073Z,73.34
2023-05-10T05:45:26.339Z,73.36
2023-05-10T05:46:30.652Z,73.14
2023-05-10T05:47:34.943Z,72.99
2023-05-10T05:48:39.256Z,73.03
2023-05-10T05:49:43.554Z,73.05
2023-05-10T05:50:47.913Z,72.94
2023-05-10T05:51:52.263Z,72.83
2023-05-10T05:52:56.614Z,72.61
2023-05-10T05:54:00.877Z,72.44
2023-05-10T05:55:05.166Z,72.41
2023-05-10T05:56:09.488Z,72.41
2023-05-10T05:57:13.834Z,72.37
2023-05-10T05:58:18.149Z,72.38
2023-05-10T05:59:22.451Z,72.26
2023-05-10T06:00:26.838Z,71.98
2023-05-10T06:01:31.177Z,71.71
2023-05-10T06:02:35.590Z,71.82
2023-05-10T06:03:39.904Z,71.79
2023-05-10T06:04:44.901Z,71.36
2023-05-10T06:05:48.453Z,71.38
2023-05-10T06:06:52.825Z,71.40
2023-05-10T06:07:57.079Z,71.14
2023-05-10T06:09:01.375Z,71.01
2023-05-10T06:10:05.681Z,70.96
2023-05-10T06:11:10.081Z,71.24
2023-05-10T06:12:14.342Z,71.24
2023-05-10T06:13:18.728Z,70.92
2023-05-10T06:14:22.842Z,70.72
2023-05-10T06:15:27.261Z,70.91
2023-05-10T06:16:31.794Z,71.07
2023-05-10T06:17:36.053Z,71.21
2023-05-10T06:18:40.382Z,71.21
2023-05-10T06:19:44.804Z,71.18
2023-05-10T06:20:49.077Z,70.87
2023-05-10T06:21:54.057Z,70.66
2023-05-10T06:22:57.741Z,70.12
2023-05-10T06:24:02.056Z,70.11
2023-05-10T06:25:06.477Z,70.17
2023-05-10T06:26:10.676Z,70.23
2023-05-10T06:27:15.063Z,69.75
2023-05-10T06:28:19.445Z,69.25
2023-05-10T06:29:23.701Z,69.29
2023-05-10T06:30:28.195Z,69.44
2023-05-10T06:31:32.481Z,69.07
2023-05-10T06:32:36.772Z,69.12
2023-05-10T06:33:41.042Z,68.53
2023-05-10T06:34:45.470Z,68.33
2023-05-10T06:35:49.741Z,68.55
2023-05-10T06:36:54.083Z,68.85
2023-05-10T06:37:58.406Z,68.75
2023-05-10T06:39:02.778Z,68.85
2023-05-10T06:40:07.192Z,68.67
2023-05-10T06:41:11.488Z,68.56
2023-05-10T06:42:18.841Z,68.48
2023-05-10T06:43:22.403Z,68.86
2023-05-10T06:44:26.678Z,68.93
2023-05-10T06:45:31.104Z,69.21
2023-05-10T06:46:35.475Z,68.55
2023-05-10T06:47:39.982Z,68.05
2023-05-10T06:48:44.169Z,68.00
2023-05-10T06:49:48.689Z,67.84
2023-05-10T06:50:53.048Z,68.33
2023-05-10T06:51:57.371Z,67.99
2023-05-10T06:53:01.749Z,67.67
2023-05-10T06:54:06.134Z,67.20
2023-05-10T06:55:10.506Z,67.52
2023-05-10T06:56:14.885Z,67.92
2023-05-10T06:57:30.647Z,68.14
2023-05-10T06:58:23.792Z,67.74
2023-05-10T06:59:28.273Z,67.65
2023-05-10T07:00:32.692Z,67.33
2023-05-10T07:01:36.995Z,67.26
2023-05-10T07:02:41.346Z,67.02
2023-05-10T07:03:51.685Z,66.70
2023-05-10T07:04:54.794Z,65.97
2023-05-10T07:05:58.975Z,66.16
2023-05-10T07:07:03.293Z,66.26
2023-05-10T07:08:07.820Z,66.40
2023-05-10T07:09:12.234Z,65.97
2023-05-10T07:10:16.618Z,65.71
2023-05-10T07:11:21.011Z,65.47
2023-05-10T07:12:25.393Z,64.80
2023-05-10T07:13:29.874Z,64.26
2023-05-10T07:14:34.046Z,64.52
2023-05-10T07:15:38.498Z,64.66
2023-05-10T07:16:42.994Z,64.35
2023-05-10T07:17:47.279Z,64.55
2023-05-10T07:18:51.656Z,64.64
2023-05-10T07:19:56.037Z,64.89
2023-05-10T07:21:00.544Z,65.28
2023-05-10T07:22:04.754Z,65.03
2023-05-10T07:23:09.085Z,64.97
2023-05-10T07:24:13.476Z,65.17
2023-05-10T07:25:18.135Z,65.17
2023-05-10T07:26:22.236Z,64.58
2023-05-10T07:27:26.634Z,64.31
2023-05-10T07:28:31.004Z,64.50
2023-05-10T07:29:35.447Z,64.94
2023-05-10T07:30:39.907Z,65.03
2023-05-10T07:31:44.177Z,65.23
2023-05-10T07:32:48.598Z,64.35
2023-05-10T07:33:53.003Z,64.48
2023-05-10T07:34:57.354Z,64.39
2023-05-10T07:36:01.704Z,64.59
2023-05-10T07:37:06.010Z,64.73
2023-05-10T07:38:10.376Z,64.98
2023-05-10T07:39:18.643Z,65.10
2023-05-10T07:40:19.152Z,64.99
2023-05-10T07:41:23.594Z,64.60
2023-05-10T07:42:28.013Z,64.54
2023-05-10T07:43:32.348Z,64.94
2023-05-10T07:44:36.763Z,65.05
2023-05-10T07:45:41.165Z,65.12
2023-05-10T07:46:45.445Z,65.27
2023-05-10T07:47:49.879Z,64.90
2023-05-10T07:48:54.279Z,64.41
2023-05-10T07:49:58.604Z,64.54
2023-05-10T07:51:02.894Z,64.81
2023-05-10T07:52:07.267Z,64.47
2023-05-10T07:53:11.708Z,63.99
2023-05-10T07:54:16.098Z,63.79
2023-05-10T07:55:20.551Z,64.25
2023-05-10T07:56:24.972Z,64.17
2023-05-10T07:57:29.240Z,64.56
2023-05-10T07:58:33.672Z,64.66
2023-05-10T07:59:38.041Z,64.57
2023-05-10T08:00:45.481Z,64.56
2023-05-10T08:01:48.929Z,64.27
2023-05-10T08:02:53.412Z,64.10
2023-05-10T08:03:57.761Z,63.77
2023-05-10T08:05:02.087Z,64.14
2023-05-10T08:06:06.510Z,64.44
2023-05-10T08:07:10.998Z,64.11
2023-05-10T08:08:15.255Z,64.35
2023-05-10T08:09:19.638Z,64.38
2023-05-10T08:10:23.940Z,64.21
2023-05-10T08:11:28.386Z,63.64
2023-05-10T08:12:32.726Z,63.97
2023-05-10T08:13:37.136Z,63.74
2023-05-10T08:14:41.437Z,63.62
2023-05-10T08:15:45.776Z,63.82
2023-05-10T08:16:50.105Z,63.72
2023-05-10T08:17:54.704Z,63.40
2023-05-10T08:18:58.989Z,62.95
2023-05-10T08:20:03.266Z,63.29
2023-05-10T08:21:07.563Z,63.61
2023-05-10T08:22:12.012Z,64.04
2023-05-10T08:23:16.350Z,63.45
2023-05-10T08:24:20.797Z,62.67
2023-05-10T08:25:25.072Z,62.49
2023-05-10T08:26:29.547Z,62.28
2023-05-10T08:27:33.892Z,62.32
2023-05-10T08:28:38.400Z,61.90
2023-05-10T08:29:50.103Z,61.62
2023-05-10T08:30:46.991Z,61.80
2023-05-10T08:31:51.424Z,61.93
2023-05-10T08:32:55.821Z,62.07
2023-05-10T08:34:00.194Z,61.59
2023-05-10T08:35:04.616Z,61.50
2023-05-10T08:36:09.125Z,61.66
2023-05-10T08:37:16.508Z,61.48
2023-05-10T08:38:20.041Z,61.76
2023-05-10T08:39:30.261Z,61.99
2023-05-10T08:40:28.691Z,61.99
2023-05-10T08:41:33.069Z,62.01
2023-05-10T08:42:37.503Z,62.40
2023-05-10T08:43:42.001Z,61.89
2023-05-10T08:44:48.865Z,62.16
2023-05-10T08:45:50.803Z,62.01
2023-05-10T08:46:55.219Z,61.73
2023-05-10T08:47:59.472Z,61.50
2023-05-10T08:49:03.888Z,61.26
2023-05-10T08:50:08.217Z,61.00
2023-05-10T08:51:12.558Z,60.90
2023-05-10T08:52:16.935Z,61.07
2023-05-10T08:53:21.312Z,60.58
2023-05-10T08:54:25.719Z,61.30
2023-05-10T08:55:30.012Z,61.88
2023-05-10T08:56:34.346Z,60.79
2023-05-10T08:57:38.861Z,60.66
2023-05-10T08:58:43.209Z,60.89
2023-05-10T08:59:47.568Z,61.18
2023-05-10T09:00:51.972Z,61.38
2023-05-10T09:01:56.249Z,60.82
2023-05-10T09:03:00.682Z,60.76
2023-05-10T09:04:05.233Z,60.20
2023-05-10T09:05:09.451Z,60.14
2023-05-10T09:06:13.750Z,59.93
2023-05-10T09:07:18.190Z,60.75
2023-05-10T09:08:22.519Z,61.11
2023-05-10T09:09:26.836Z,61.57
2023-05-10T09:10:31.317Z,61.73
2023-05-10T09:11:35.530Z,61.76
2023-05-10T09:12:39.897Z,61.19
2023-05-10T09:13:44.251Z,60.64
2023-05-10T09:14:48.628Z,60.12
2023-05-10T09:15:53.037Z,59.87
2023-05-10T09:16:57.441Z,59.92
2023-05-10T09:18:01.783Z,60.23
2023-05-10T09:19:06.151Z,60.17
2023-05-10T09:20:10.626Z,59.75
2023-05-10T09:21:14.911Z,59.76
2023-05-10T09:22:19.232Z,59.81
2023-05-10T09:23:23.589Z,59.51
2023-05-10T09:24:27.978Z,59.43
2023-05-10T09:25:32.415Z,59.38
2023-05-10T09:26:36.993Z,59.83
2023-05-10T09:27:41.138Z,59.93
2023-05-10T09:28:45.580Z,59.92
2023-05-10T09:30:03.978Z,59.91
2023-05-10T09:31:07.355Z,60.28
2023-05-10T09:32:11.727Z,60.67
2023-05-10T09:33:29.946Z,60.45
2023-05-10T09:34:33.200Z,60.09
2023-05-10T09:35:37.733Z,60.17
2023-05-10T09:36:42.101Z,60.24
2023-05-10T09:37:46.521Z,60.19
2023-05-10T09:38:50.847Z,59.77
2023-05-10T09:39:55.269Z,59.10
2023-05-10T09:40:59.546Z,58.50
2023-05-10T09:42:03.927Z,59.14
2023-05-10T09:43:08.458Z,59.50
2023-05-10T09:44:12.808Z,59.75
2023-05-10T09:45:17.384Z,59.73
2023-05-10T09:46:21.539Z,59.11
2023-05-10T09:47:25.987Z,58.79
2023-05-10T09:48:30.210Z,59.02
2023-05-10T09:49:34.619Z,58.83
2023-05-10T09:50:38.972Z,58.59
2023-05-10T09:51:43.327Z,58.39
2023-05-10T09:52:47.760Z,58.70
2023-05-10T09:53:52.187Z,59.40
2023-05-10T09:54:56.502Z,59.33
2023-05-10T09:56:00.964Z,58.80
2023-05-10T09:57:05.360Z,58.88
2023-05-10T09:58:09.880Z,58.51
2023-05-10T09:59:14.218Z,58.16
2023-05-10T10:01:45.677Z,58.25
2023-05-10T10:02:50.167Z,58.44
2023-05-10T10:03:54.396Z,58.45
2023-05-10T10:04:58.912Z,57.90
2023-05-10T10:06:03.191Z,57.60
2023-05-10T10:07:21.898Z,57.75
2023-05-10T10:08:25.196Z,57.95
2023-05-10T10:09:29.638Z,57.33
2023-05-10T10:10:36.961Z,57.72
2023-05-10T10:11:40.395Z,57.38
2023-05-10T10:12:44.804Z,57.13
2023-05-10T10:13:49.158Z,57.23
2023-05-10T10:14:53.481Z,56.46
2023-05-10T10:15:57.905Z,56.46
2023-05-10T10:18:06.750Z,56.23
2023-05-10T10:19:11.267Z,56.37
2023-05-10T10:20:16.010Z,56.66
2023-05-10T10:21:20.047Z,56.71
2023-05-10T10:22:24.437Z,56.95
2023-05-10T10:23:28.769Z,56.98
2023-05-10T10:24:33.138Z,56.95
2023-05-10T10:25:37.390Z,56.91
2023-05-10T10:26:55.844Z,56.58
2023-05-10T10:27:59.383Z,56.31
2023-05-10T10:29:03.707Z,55.82
2023-05-10T10:30:08.062Z,56.32
2023-05-10T10:31:26.566Z,56.32
2023-05-10T10:32:30.036Z,56.21
2023-05-10T10:33:40.298Z,56.39
2023-05-10T10:34:43.296Z,56.78
2023-05-10T10:35:47.771Z,56.74
2023-05-10T10:36:52.090Z,56.45
2023-05-10T10:37:56.465Z,56.11
2023-05-10T10:39:00.854Z,55.69
2023-05-10T10:40:05.350Z,56.06
2023-05-10T10:41:09.720Z,56.08
2023-05-10T10:42:14.036Z,56.20
2023-05-10T10:43:18.508Z,55.85
2023-05-10T10:44:22.862Z,56.13
2023-05-10T10:45:27.284Z,56.14
2023-05-10T10:46:31.741Z,56.22
2023-05-10T10:47:36.184Z,56.41
2023-05-10T10:48:40.579Z,56.33
2023-05-10T10:49:47.904Z,56.15
2023-05-10T10:50:51.363Z,56.24
2023-05-10T10:51:55.799Z,55.77
2023-05-10T10:53:00.392Z,55.95
2023-05-10T10:54:07.746Z,55.57
2023-05-10T10:55:11.258Z,55.73
2023-05-10T10:56:15.715Z,55.81
2023-05-10T10:57:20.051Z,55.75
2023-05-10T10:58:24.568Z,54.91
2023-05-10T10:59:29.112Z,55.20
2023-05-10T11:02:01.278Z,54.59
2023-05-10T11:03:05.555Z,54.93
2023-05-10T11:04:09.998Z,55.00
2023-05-10T11:05:14.608Z,54.41
2023-05-10T11:06:18.888Z,54.98
2023-05-10T11:07:23.306Z,54.09
2023-05-10T11:08:27.700Z,53.98
2023-05-10T11:09:32.112Z,53.29
2023-05-10T11:10:36.449Z,53.64
2023-05-10T11:11:46.909Z,54.24
2023-05-10T11:13:04.072Z,54.19
2023-05-10T11:14:07.579Z,54.33
2023-05-10T11:15:11.939Z,53.41
2023-05-10T11:16:16.407Z,53.30
2023-05-10T11:17:20.777Z,53.49
2023-05-10T11:18:25.154Z,53.60
2023-05-10T11:19:29.476Z,53.26
2023-05-10T11:20:33.996Z,53.30
2023-05-10T11:21:38.502Z,53.40
2023-05-10T11:22:42.976Z,53.69
2023-05-10T11:23:50.313Z,53.63
2023-05-10T11:24:53.937Z,53.63
2023-05-10T11:25:58.264Z,52.64
2023-05-10T11:27:02.779Z,52.55
2023-05-10T11:28:07.207Z,52.54
2023-05-10T11:29:11.650Z,52.89
2023-05-10T11:30:19.502Z,53.19
2023-05-10T11:31:22.717Z,52.87
2023-05-10T11:32:26.994Z,52.14
2023-05-10T11:33:31.438Z,52.15
2023-05-10T11:34:35.878Z,52.13
2023-05-10T11:35:42.987Z,52.48
2023-05-10T11:36:44.783Z,52.54
2023-05-10T11:37:49.197Z,52.41
2023-05-10T11:38:53.573Z,51.90
2023-05-10T11:40:12.089Z,51.48
2023-05-10T11:41:15.635Z,51.34
2023-05-10T11:42:19.899Z,51.16
2023-05-10T11:43:24.361Z,51.24
2023-05-10T11:44:28.711Z,51.64
2023-05-10T11:45:33.213Z,51.24
2023-05-10T11:46:37.534Z,51.79
2023-05-10T11:47:42.909Z,52.03
2023-05-10T11:48:52.437Z,50.78
2023-05-10T11:49:55.460Z,51.47
2023-05-10T11:51:00.036Z,51.38
2023-05-10T11:52:04.421Z,50.84
2023-05-10T11:53:24.717Z,51.36
2023-05-10T11:54:26.227Z,50.46
2023-05-10T11:55:30.896Z,49.63
2023-05-10T11:56:38.321Z,50.23
2023-05-10T11:57:41.784Z,50.45
2023-05-10T11:58:46.285Z,50.39
2023-05-10T11:59:50.675Z,50.69
2023-05-10T12:00:55.187Z,50.72
2023-05-10T12:02:13.619Z,50.94
2023-05-10T12:03:16.925Z,51.29
2023-05-10T12:04:21.501Z,51.44
2023-05-10T12:05:25.544Z,51.29
2023-05-10T12:06:30.019Z,51.29
2023-05-10T12:07:34.373Z,51.07
2023-05-10T12:08:38.754Z,51.45
2023-05-10T12:09:44.349Z,51.65
2023-05-10T12:10:47.770Z,51.61
2023-05-10T12:11:52.171Z,51.36
2023-05-10T12:12:56.559Z,51.11
2023-05-10T12:14:00.974Z,50.68
2023-05-10T12:15:05.411Z,49.46
2023-05-10T12:16:09.891Z,49.22
2023-05-10T12:17:28.285Z,49.12
2023-05-10T12:18:31.779Z,48.97
2023-05-10T12:19:36.065Z,49.28
2023-05-10T12:22:08.050Z,49.10
2023-05-10T12:23:12.507Z,48.59
2023-05-10T12:24:16.923Z,49.49
2023-05-10T12:25:21.291Z,49.64
2023-05-10T12:26:25.798Z,49.07
2023-05-10T12:27:30.237Z,48.97
2023-05-10T12:28:48.593Z,48.88
2023-05-10T12:29:52.099Z,49.27
2023-05-10T12:30:56.434Z,49.86
2023-05-10T12:32:01.153Z,49.72
2023-05-10T12:33:19.454Z,49.67
2023-05-10T12:34:22.945Z,49.52
2023-05-10T12:35:27.293Z,49.48
2023-05-10T12:36:31.690Z,49.65
2023-05-10T12:37:36.134Z,49.91
2023-05-10T12:38:40.533Z,49.38
2023-05-10T12:39:45.099Z,49.62
2023-05-10T12:40:49.388Z,48.83
2023-05-10T12:41:59.766Z,48.75
2023-05-10T12:43:02.939Z,48.76
2023-05-10T12:44:07.247Z,48.96
2023-05-10T12:45:11.736Z,49.36
2023-05-10T12:46:16.225Z,49.23
2023-05-10T12:47:20.561Z,49.38
2023-05-10T12:48:24.947Z,49.62
2023-05-10T12:49:29.459Z,49.89
2023-05-10T12:50:36.797Z,50.16
2023-05-10T12:51:40.332Z,49.66
2023-05-10T12:52:44.753Z,49.88
2023-05-10T12:53:49.672Z,50.21
2023-05-10T12:54:53.569Z,50.40
2023-05-10T12:55:58.054Z,50.47
2023-05-10T12:57:02.417Z,50.19
2023-05-10T12:58:06.909Z,49.90
2023-05-10T12:59:11.257Z,49.18
2023-05-10T13:00:15.843Z,49.73
2023-05-10T13:01:20.255Z,49.22
2023-05-10T13:02:24.709Z,49.41
2023-05-10T13:03:29.099Z,48.68
2023-05-10T13:06:00.991Z,49.42
2023-05-10T13:07:19.364Z,49.31
2023-05-10T13:08:22.672Z,49.77
2023-05-10T13:09:27.137Z,49.60
2023-05-10T13:10:31.478Z,49.86
2023-05-10T13:11:49.864Z,50.41
2023-05-10T13:12:53.368Z,50.85
2023-05-10T13:13:57.667Z,50.62
2023-05-10T13:15:02.033Z,51.08
2023-05-10T13:16:06.363Z,50.96
2023-05-10T13:17:10.874Z,50.84
2023-05-10T13:18:21.402Z,50.93
2023-05-10T13:19:24.397Z,50.96
2023-05-10T13:20:42.892Z,50.44
2023-05-10T13:21:46.373Z,50.81
2023-05-10T13:22:52.206Z,51.03
2023-05-10T13:23:55.119Z,51.12
2023-05-10T13:25:13.568Z,51.09
2023-05-10T13:26:17.030Z,50.77
2023-05-10T13:27:21.379Z,50.85
2023-05-10T13:28:25.820Z,51.00
2023-05-10T13:29:45.311Z,51.08
2023-05-10T13:30:47.567Z,51.19
2023-05-10T13:33:19.476Z,51.45
2023-05-10T13:34:23.809Z,51.34
2023-05-10T13:35:28.363Z,51.71
2023-05-10T13:36:32.748Z,51.60
2023-05-10T13:37:40.179Z,51.70
2023-05-10T13:38:57.692Z,51.96
2023-05-10T13:40:00.745Z,51.80
2023-05-10T13:41:05.184Z,52.05
2023-05-10T13:42:09.553Z,52.36
2023-05-10T13:43:14.039Z,52.66
2023-05-10T13:44:18.522Z,52.22
2023-05-10T13:45:22.897Z,52.40
2023-05-10T13:46:27.391Z,52.99
2023-05-10T13:47:31.889Z,52.84
2023-05-10T13:48:38.709Z,52.98
2023-05-10T13:49:40.607Z,53.04
2023-05-10T13:50:59.057Z,53.34
2023-05-10T13:52:02.513Z,53.65
2023-05-10T13:53:12.917Z,53.08
2023-05-10T13:54:30.161Z,52.94
2023-05-10T13:55:33.385Z,52.63
2023-05-10T13:56:37.839Z,52.41
2023-05-10T13:57:42.190Z,52.73
2023-05-10T13:59:00.755Z,52.69
2023-05-10T14:00:04.293Z,52.62
2023-05-10T14:01:08.670Z,53.01
2023-05-10T14:02:13.070Z,53.51
2023-05-10T14:03:31.489Z,53.35
2023-05-10T14:04:34.637Z,53.61